»·PEaware :: N9915H KWHP-KCRQ

N9915H :: KWHP-KCRQ

FLIGHT INFORMATION

Flight Status: Arrived
Operator: Privately registered:
United States
More flights under this callsign
Pilot: Charlton B. (28558)
Aircraft: BEECH AIRCRAFT BONANZA
(BE36)
More flights by this aircraft type
Origin: KWHP Whiteman
United States
Destination: KCRQ McClellan-Palomar
United States
More flights between these airports :: More routes between these airports
Route: +
File this flight plan on PilotEdge
Remarks:
Altitude:
(Current/Filed)
5,500ft
Speed:
(Current/Filed)
0kts
Departed: 27-Jul-20 02:27 PM
Arrived: 27-Jul-20 03:11 PM
Distance/Time
Traveled:
89nm/0:43
Distance/Time
To Go:
Arrived

Flight Plot

Page will automatically refresh every two minutes.


Map Options




Map Legend


Flown Route
Filed Route
Departure Airport
Arrival Airport
Navaid (VOR, NDB)
Fix

Horizontal Profiles

Position Reports

Time Latitude Longitude Heading Altitude Ground
Speed
27-Jul-20 14:18 34.260592 -118.413410 138 998ft 0kts
27-Jul-20 14:19 34.260592 -118.413410 138 998ft 0kts
27-Jul-20 14:20 34.262441 -118.416097 317 1001ft 20kts
27-Jul-20 14:21 34.263617 -118.417116 261 1001ft 0kts
27-Jul-20 14:22 34.263617 -118.417116 261 1001ft 0kts
27-Jul-20 14:23 34.263617 -118.417116 261 1001ft 0kts
27-Jul-20 14:24 34.263613 -118.417166 267 1001ft 4kts
27-Jul-20 14:25 34.263653 -118.417572 251 1000ft 5kts
27-Jul-20 14:26 34.258216 -118.412403 140 1051ft 85kts
27-Jul-20 14:27 34.238717 -118.389886 134 2267ft 105kts
27-Jul-20 14:28 34.212389 -118.381207 214 2511ft 126kts
27-Jul-20 14:29 34.186592 -118.413120 231 2519ft 134kts
27-Jul-20 14:30 34.171206 -118.446917 236 3786ft 109kts
27-Jul-20 14:31 34.156442 -118.480931 226 4857ft 109kts
27-Jul-20 14:32 34.131292 -118.500395 197 5485ft 125kts
27-Jul-20 14:33 34.095108 -118.514553 167 5477ft 145kts
27-Jul-20 14:34 34.058659 -118.491238 161 5488ft 150kts
27-Jul-20 14:35 34.019131 -118.474239 159 5493ft 151kts
27-Jul-20 14:36 33.980053 -118.455305 159 5493ft 151kts
27-Jul-20 14:37 33.940970 -118.436292 160 5495ft 151kts
27-Jul-20 14:38 33.908367 -118.403897 143 5497ft 153kts
27-Jul-20 14:39 33.874199 -118.373146 146 5497ft 154kts
27-Jul-20 14:40 33.841139 -118.340026 142 5494ft 155kts
27-Jul-20 14:41 33.807642 -118.307899 147 5510ft 153kts
27-Jul-20 14:42 33.773110 -118.277459 147 5507ft 153kts
27-Jul-20 14:43 33.742305 -118.242500 131 5506ft 155kts
27-Jul-20 14:45 33.715322 -118.202069 131 5508ft 154kts
27-Jul-20 14:46 33.688553 -118.161732 131 5509ft 154kts
27-Jul-20 14:47 33.661836 -118.121467 131 5511ft 154kts
27-Jul-20 14:48 33.635123 -118.081241 130 5512ft 154kts
27-Jul-20 14:49 33.608442 -118.041076 130 5513ft 154kts
27-Jul-20 14:50 33.581715 -118.000910 130 5512ft 154kts
27-Jul-20 14:51 33.554936 -117.960720 130 5512ft 153kts
27-Jul-20 14:52 33.528849 -117.921621 130 5757ft 143kts
27-Jul-20 14:53 33.503402 -117.883621 130 6365ft 148kts
27-Jul-20 14:54 33.477599 -117.845030 129 6963ft 148kts
27-Jul-20 14:55 33.451892 -117.806586 129 7501ft 151kts
27-Jul-20 14:56 33.424312 -117.765357 129 7510ft 161kts
27-Jul-20 14:57 33.396106 -117.723101 129 7508ft 163kts
27-Jul-20 14:58 33.367652 -117.680693 129 7506ft 163kts
27-Jul-20 14:59 33.339112 -117.638249 129 7504ft 164kts
27-Jul-20 15:00 33.310929 -117.596252 130 6734ft 159kts
27-Jul-20 15:00 33.288713 -117.563156 130 5814ft 146kts
27-Jul-20 15:02 33.257816 -117.517433 131 4420ft 155kts
27-Jul-20 15:03 33.230792 -117.477412 131 3353ft 151kts
27-Jul-20 15:03 33.209137 -117.445378 131 2600ft 147kts
27-Jul-20 15:05 33.178649 -117.400415 131 2512ft 148kts
27-Jul-20 15:05 33.161206 -117.364711 116 2283ft 150kts
27-Jul-20 15:06 33.145893 -117.321045 111 1566ft 139kts
27-Jul-20 15:07 33.146286 -117.277937 71 1517ft 116kts
27-Jul-20 15:08 33.139299 -117.253677 203 1192ft 97kts
27-Jul-20 15:09 33.128780 -117.276576 262 335ft 49kts
27-Jul-20 15:10 33.127569 -117.279540 138 335ft 1kts
27-Jul-20 15:11 33.126955 -117.278490 88 335ft 0kts
27-Jul-20 15:24 33.127588 -117.275802 170 335ft 0kts

Navigation Log

Ident Type
Flight plan parsing failed, navigation log unavailable